sensor_id;sensor_type;location;lat;lon;timestamp;temperature;humidity
39865;DHT22;25538;48.392;9.976;2022-09-09T00:00:20;14.00;99.90
39865;DHT22;25538;48.392;9.976;2022-09-09T00:08:20;14.00;99.90
39865;DHT22;25538;48.392;9.976;2022-09-09T00:10:58;14.00;99.90
39865;DHT22;25538;48.392;9.976;2022-09-09T00:13:37;14.00;99.90
39865;DHT22;25538;48.392;9.976;2022-09-09T00:19:23;13.90;99.90
39865;DHT22;25538;48.392;9.976;2022-09-09T00:25:02;13.90;99.90
39865;DHT22;25538;48.392;9.976;2022-09-09T00:27:31;13.90;99.90
39865;DHT22;25538;48.392;9.976;2022-09-09T00:30:13;13.90;99.90
39865;DHT22;25538;48.392;9.976;2022-09-09T00:32:40;14.00;99.90
39865;DHT22;25538;48.392;9.976;2022-09-09T00:35:22;14.00;99.90
39865;DHT22;25538;48.392;9.976;2022-09-09T00:37:53;14.00;99.90
39865;DHT22;25538;48.392;9.976;2022-09-09T00:40:33;14.00;99.90
39865;DHT22;25538;48.392;9.976;2022-09-09T00:43:22;13.90;99.90
39865;DHT22;25538;48.392;9.976;2022-09-09T00:48:34;13.70;99.90
39865;DHT22;25538;48.392;9.976;2022-09-09T00:51:15;13.70;99.90
39865;DHT22;25538;48.392;9.976;2022-09-09T00:56:26;13.70;99.90
39865;DHT22;25538;48.392;9.976;2022-09-09T00:59:14;13.60;99.90
39865;DHT22;25538;48.392;9.976;2022-09-09T01:01:42;13.60;99.90
39865;DHT22;25538;48.392;9.976;2022-09-09T01:04:13;13.50;99.90
39865;DHT22;25538;48.392;9.976;2022-09-09T01:06:43;13.50;99.90
39865;DHT22;25538;48.392;9.976;2022-09-09T01:12:17;13.50;99.90
39865;DHT22;25538;48.392;9.976;2022-09-09T01:14:48;13.50;99.90
39865;DHT22;25538;48.392;9.976;2022-09-09T01:17:24;13.40;99.90
39865;DHT22;25538;48.392;9.976;2022-09-09T01:20:10;13.50;99.90
39865;DHT22;25538;48.392;9.976;2022-09-09T01:25:30;13.50;99.90
39865;DHT22;25538;48.392;9.976;2022-09-09T01:28:00;13.50;99.90
39865;DHT22;25538;48.392;9.976;2022-09-09T01:30:28;13.40;99.90
39865;DHT22;25538;48.392;9.976;2022-09-09T01:32:56;13.30;99.90
39865;DHT22;25538;48.392;9.976;2022-09-09T01:35:41;13.20;99.90
39865;DHT22;25538;48.392;9.976;2022-09-09T01:38:07;13.20;99.90
39865;DHT22;25538;48.392;9.976;2022-09-09T01:40:33;13.10;99.90
39865;DHT22;25538;48.392;9.976;2022-09-09T01:43:00;13.10;99.90
39865;DHT22;25538;48.392;9.976;2022-09-09T01:45:26;13.10;99.90
39865;DHT22;25538;48.392;9.976;2022-09-09T01:47:52;13.10;99.90
39865;DHT22;25538;48.392;9.976;2022-09-09T01:50:19;13.10;99.90
39865;DHT22;25538;48.392;9.976;2022-09-09T01:52:48;13.00;99.90
39865;DHT22;25538;48.392;9.976;2022-09-09T01:55:16;12.90;99.90
39865;DHT22;25538;48.392;9.976;2022-09-09T01:57:50;12.90;99.90
39865;DHT22;25538;48.392;9.976;2022-09-09T02:00:20;12.90;99.90
39865;DHT22;25538;48.392;9.976;2022-09-09T02:06:19;12.80;99.90
39865;DHT22;25538;48.392;9.976;2022-09-09T02:08:49;12.80;99.90
39865;DHT22;25538;48.392;9.976;2022-09-09T02:11:18;12.70;99.90
39865;DHT22;25538;48.392;9.976;2022-09-09T02:13:46;12.70;99.90
39865;DHT22;25538;48.392;9.976;2022-09-09T02:16:30;12.70;99.90
39865;DHT22;25538;48.392;9.976;2022-09-09T02:19:11;12.70;99.90
39865;DHT22;25538;48.392;9.976;2022-09-09T02:21:42;12.70;99.90
39865;DHT22;25538;48.392;9.976;2022-09-09T02:24:11;12.70;99.90
39865;DHT22;25538;48.392;9.976;2022-09-09T02:26:41;12.80;99.90
39865;DHT22;25538;48.392;9.976;2022-09-09T02:29:12;12.80;99.90
39865;DHT22;25538;48.392;9.976;2022-09-09T02:31:39;12.70;99.90
39865;DHT22;25538;48.392;9.976;2022-09-09T02:34:09;12.80;99.90
39865;DHT22;25538;48.392;9.976;2022-09-09T02:36:37;12.70;99.90
39865;DHT22;25538;48.392;9.976;2022-09-09T02:39:08;12.60;99.90
39865;DHT22;25538;48.392;9.976;2022-09-09T02:41:37;12.50;99.90
39865;DHT22;25538;48.392;9.976;2022-09-09T02:44:11;12.50;99.90
39865;DHT22;25538;48.392;9.976;2022-09-09T02:52:07;12.50;99.90
39865;DHT22;25538;48.392;9.976;2022-09-09T02:54:35;12.60;99.90
39865;DHT22;25538;48.392;9.976;2022-09-09T02:57:08;12.70;99.90
39865;DHT22;25538;48.392;9.976;2022-09-09T02:59:36;12.70;99.90
39865;DHT22;25538;48.392;9.976;2022-09-09T03:02:03;12.70;99.90
39865;DHT22;25538;48.392;9.976;2022-09-09T03:04:29;12.80;99.90
39865;DHT22;25538;48.392;9.976;2022-09-09T03:06:56;12.80;99.90
39865;DHT22;25538;48.392;9.976;2022-09-09T03:09:22;12.80;99.90
39865;DHT22;25538;48.392;9.976;2022-09-09T03:11:50;12.80;99.90
39865;DHT22;25538;48.392;9.976;2022-09-09T03:14:16;12.80;99.90
39865;DHT22;25538;48.392;9.976;2022-09-09T03:16:42;12.90;99.90
39865;DHT22;25538;48.392;9.976;2022-09-09T03:19:08;12.90;99.90
39865;DHT22;25538;48.392;9.976;2022-09-09T03:21:34;13.00;99.90
39865;DHT22;25538;48.392;9.976;2022-09-09T03:24:01;13.00;99.90
39865;DHT22;25538;48.392;9.976;2022-09-09T03:26:29;13.00;99.90
39865;DHT22;25538;48.392;9.976;2022-09-09T03:28:56;13.00;99.90
39865;DHT22;25538;48.392;9.976;2022-09-09T03:31:22;13.10;99.90
39865;DHT22;25538;48.392;9.976;2022-09-09T03:33:48;13.10;99.90
39865;DHT22;25538;48.392;9.976;2022-09-09T03:36:14;13.10;99.90
39865;DHT22;25538;48.392;9.976;2022-09-09T03:38:41;13.10;99.90
39865;DHT22;25538;48.392;9.976;2022-09-09T03:41:07;13.10;99.90
39865;DHT22;25538;48.392;9.976;2022-09-09T03:43:33;13.20;99.90
39865;DHT22;25538;48.392;9.976;2022-09-09T03:45:59;13.30;99.90
39865;DHT22;25538;48.392;9.976;2022-09-09T03:48:26;13.30;99.90
39865;DHT22;25538;48.392;9.976;2022-09-09T03:50:54;13.30;99.90
39865;DHT22;25538;48.392;9.976;2022-09-09T03:53:22;13.40;99.90
39865;DHT22;25538;48.392;9.976;2022-09-09T03:55:50;13.50;99.90
39865;DHT22;25538;48.392;9.976;2022-09-09T03:58:21;13.60;99.90
39865;DHT22;25538;48.392;9.976;2022-09-09T04:00:56;13.70;99.90
39865;DHT22;25538;48.392;9.976;2022-09-09T04:03:23;13.70;99.90
39865;DHT22;25538;48.392;9.976;2022-09-09T04:05:54;13.70;99.90
39865;DHT22;25538;48.392;9.976;2022-09-09T04:08:21;13.80;99.90
39865;DHT22;25538;48.392;9.976;2022-09-09T04:10:49;13.70;99.90
39865;DHT22;25538;48.392;9.976;2022-09-09T04:13:17;13.70;99.90
39865;DHT22;25538;48.392;9.976;2022-09-09T04:15:44;13.70;99.90
39865;DHT22;25538;48.392;9.976;2022-09-09T04:18:15;13.70;99.90
39865;DHT22;25538;48.392;9.976;2022-09-09T04:20:41;13.60;99.90
39865;DHT22;25538;48.392;9.976;2022-09-09T04:23:09;13.60;99.90
39865;DHT22;25538;48.392;9.976;2022-09-09T04:25:34;13.50;99.90
39865;DHT22;25538;48.392;9.976;2022-09-09T04:28:01;13.50;99.90
39865;DHT22;25538;48.392;9.976;2022-09-09T04:30:28;13.40;99.90
39865;DHT22;25538;48.392;9.976;2022-09-09T04:32:54;13.40;99.90
39865;DHT22;25538;48.392;9.976;2022-09-09T04:35:20;13.40;99.90
39865;DHT22;25538;48.392;9.976;2022-09-09T04:37:46;13.50;99.90
39865;DHT22;25538;48.392;9.976;2022-09-09T04:40:12;13.40;99.90
39865;DHT22;25538;48.392;9.976;2022-09-09T04:42:38;13.30;99.90
39865;DHT22;25538;48.392;9.976;2022-09-09T04:45:06;13.30;99.90
39865;DHT22;25538;48.392;9.976;2022-09-09T04:47:32;13.40;99.90
39865;DHT22;25538;48.392;9.976;2022-09-09T04:50:00;13.50;99.90
39865;DHT22;25538;48.392;9.976;2022-09-09T04:52:26;13.60;99.90
39865;DHT22;25538;48.392;9.976;2022-09-09T04:54:52;13.70;99.90
39865;DHT22;25538;48.392;9.976;2022-09-09T04:57:19;13.70;99.90
39865;DHT22;25538;48.392;9.976;2022-09-09T04:59:45;13.70;99.90
39865;DHT22;25538;48.392;9.976;2022-09-09T05:02:12;13.70;99.90
39865;DHT22;25538;48.392;9.976;2022-09-09T05:04:37;13.80;99.90
39865;DHT22;25538;48.392;9.976;2022-09-09T05:07:03;13.80;99.90
39865;DHT22;25538;48.392;9.976;2022-09-09T05:09:29;13.80;99.90
39865;DHT22;25538;48.392;9.976;2022-09-09T05:11:56;13.90;99.90
39865;DHT22;25538;48.392;9.976;2022-09-09T05:14:22;14.00;99.90
39865;DHT22;25538;48.392;9.976;2022-09-09T05:16:48;14.00;99.90
39865;DHT22;25538;48.392;9.976;2022-09-09T05:19:15;14.00;99.90
39865;DHT22;25538;48.392;9.976;2022-09-09T05:21:45;13.90;99.90
39865;DHT22;25538;48.392;9.976;2022-09-09T05:24:11;13.80;99.90
39865;DHT22;25538;48.392;9.976;2022-09-09T05:26:37;13.70;99.90
39865;DHT22;25538;48.392;9.976;2022-09-09T05:29:03;13.60;99.90
39865;DHT22;25538;48.392;9.976;2022-09-09T05:31:30;13.60;99.90
39865;DHT22;25538;48.392;9.976;2022-09-09T05:33:56;13.70;99.90
39865;DHT22;25538;48.392;9.976;2022-09-09T05:36:22;13.70;99.90
39865;DHT22;25538;48.392;9.976;2022-09-09T05:38:49;13.70;99.90
39865;DHT22;25538;48.392;9.976;2022-09-09T05:41:16;13.70;99.90
39865;DHT22;25538;48.392;9.976;2022-09-09T05:43:43;13.70;99.90
39865;DHT22;25538;48.392;9.976;2022-09-09T05:46:11;13.50;99.90
39865;DHT22;25538;48.392;9.976;2022-09-09T05:48:40;13.30;99.90
39865;DHT22;25538;48.392;9.976;2022-09-09T05:51:08;13.30;99.90
39865;DHT22;25538;48.392;9.976;2022-09-09T05:53:35;13.20;99.90
39865;DHT22;25538;48.392;9.976;2022-09-09T05:56:10;13.20;99.90
39865;DHT22;25538;48.392;9.976;2022-09-09T05:58:40;13.20;99.90
39865;DHT22;25538;48.392;9.976;2022-09-09T06:01:08;13.30;99.90
39865;DHT22;25538;48.392;9.976;2022-09-09T06:03:35;13.50;99.90
39865;DHT22;25538;48.392;9.976;2022-09-09T06:06:04;13.80;99.90
39865;DHT22;25538;48.392;9.976;2022-09-09T06:08:35;14.00;99.90
39865;DHT22;25538;48.392;9.976;2022-09-09T06:11:08;14.20;99.90
39865;DHT22;25538;48.392;9.976;2022-09-09T06:13:34;14.40;99.90
39865;DHT22;25538;48.392;9.976;2022-09-09T06:16:01;14.50;99.90
39865;DHT22;25538;48.392;9.976;2022-09-09T06:18:27;14.60;99.90
39865;DHT22;25538;48.392;9.976;2022-09-09T06:21:01;14.70;99.90
39865;DHT22;25538;48.392;9.976;2022-09-09T06:23:30;14.80;99.90
39865;DHT22;25538;48.392;9.976;2022-09-09T06:28:32;14.50;99.90
39865;DHT22;25538;48.392;9.976;2022-09-09T06:30:59;14.40;99.90
39865;DHT22;25538;48.392;9.976;2022-09-09T06:33:26;14.40;99.90
39865;DHT22;25538;48.392;9.976;2022-09-09T06:35:54;14.50;99.90
39865;DHT22;25538;48.392;9.976;2022-09-09T06:38:20;14.60;99.90
39865;DHT22;25538;48.392;9.976;2022-09-09T06:40:54;14.70;99.90
39865;DHT22;25538;48.392;9.976;2022-09-09T06:43:25;14.70;99.90
39865;DHT22;25538;48.392;9.976;2022-09-09T06:48:23;15.00;99.90
39865;DHT22;25538;48.392;9.976;2022-09-09T06:51:02;15.10;99.90
39865;DHT22;25538;48.392;9.976;2022-09-09T06:53:28;15.20;99.90
39865;DHT22;25538;48.392;9.976;2022-09-09T06:55:54;15.20;99.90
39865;DHT22;25538;48.392;9.976;2022-09-09T06:58:20;15.20;99.90
39865;DHT22;25538;48.392;9.976;2022-09-09T07:00:49;15.30;99.90
39865;DHT22;25538;48.392;9.976;2022-09-09T07:03:15;15.50;99.90
39865;DHT22;25538;48.392;9.976;2022-09-09T07:05:41;15.70;99.90
39865;DHT22;25538;48.392;9.976;2022-09-09T07:08:07;15.70;99.90
39865;DHT22;25538;48.392;9.976;2022-09-09T07:10:32;15.90;99.90
39865;DHT22;25538;48.392;9.976;2022-09-09T07:12:59;15.80;99.90
39865;DHT22;25538;48.392;9.976;2022-09-09T07:15:27;15.80;99.90
39865;DHT22;25538;48.392;9.976;2022-09-09T07:17:53;15.90;99.90
39865;DHT22;25538;48.392;9.976;2022-09-09T07:20:19;16.10;99.90
39865;DHT22;25538;48.392;9.976;2022-09-09T07:22:45;16.30;99.90
39865;DHT22;25538;48.392;9.976;2022-09-09T07:25:11;16.60;99.90
39865;DHT22;25538;48.392;9.976;2022-09-09T07:27:37;16.90;99.90
39865;DHT22;25538;48.392;9.976;2022-09-09T07:30:04;17.00;99.90
39865;DHT22;25538;48.392;9.976;2022-09-09T07:32:30;16.90;99.90
39865;DHT22;25538;48.392;9.976;2022-09-09T07:34:57;16.70;99.90
39865;DHT22;25538;48.392;9.976;2022-09-09T07:37:24;16.60;99.90
39865;DHT22;25538;48.392;9.976;2022-09-09T07:39:50;16.70;99.90
39865;DHT22;25538;48.392;9.976;2022-09-09T07:42:17;17.00;99.90
39865;DHT22;25538;48.392;9.976;2022-09-09T07:44:45;17.20;99.90
39865;DHT22;25538;48.392;9.976;2022-09-09T07:47:11;17.30;99.90
39865;DHT22;25538;48.392;9.976;2022-09-09T07:49:37;17.20;99.90
39865;DHT22;25538;48.392;9.976;2022-09-09T07:52:03;17.10;99.90
39865;DHT22;25538;48.392;9.976;2022-09-09T07:54:29;17.10;99.90
39865;DHT22;25538;48.392;9.976;2022-09-09T07:56:55;17.30;99.90
39865;DHT22;25538;48.392;9.976;2022-09-09T07:59:21;17.50;99.90
39865;DHT22;25538;48.392;9.976;2022-09-09T08:01:49;17.60;99.90
39865;DHT22;25538;48.392;9.976;2022-09-09T08:04:19;17.60;99.90
39865;DHT22;25538;48.392;9.976;2022-09-09T08:06:51;17.50;99.90
39865;DHT22;25538;48.392;9.976;2022-09-09T08:09:19;17.40;99.90
39865;DHT22;25538;48.392;9.976;2022-09-09T08:11:45;17.30;99.90
39865;DHT22;25538;48.392;9.976;2022-09-09T08:14:11;17.40;99.90
39865;DHT22;25538;48.392;9.976;2022-09-09T08:16:40;17.80;99.90
39865;DHT22;25538;48.392;9.976;2022-09-09T08:19:06;18.20;99.90
39865;DHT22;25538;48.392;9.976;2022-09-09T08:21:35;17.90;99.90
39865;DHT22;25538;48.392;9.976;2022-09-09T08:24:03;17.70;99.90
39865;DHT22;25538;48.392;9.976;2022-09-09T08:26:33;18.20;99.90
39865;DHT22;25538;48.392;9.976;2022-09-09T08:29:00;18.80;99.90
39865;DHT22;25538;48.392;9.976;2022-09-09T08:31:35;19.70;99.90
39865;DHT22;25538;48.392;9.976;2022-09-09T08:34:04;20.10;99.90
39865;DHT22;25538;48.392;9.976;2022-09-09T08:36:32;20.50;99.90
39865;DHT22;25538;48.392;9.976;2022-09-09T08:39:03;21.00;99.90
39865;DHT22;25538;48.392;9.976;2022-09-09T08:48:01;21.80;99.90
39865;DHT22;25538;48.392;9.976;2022-09-09T08:50:36;21.90;99.90
39865;DHT22;25538;48.392;9.976;2022-09-09T08:53:23;21.40;99.90
39865;DHT22;25538;48.392;9.976;2022-09-09T08:55:54;21.30;99.90
39865;DHT22;25538;48.392;9.976;2022-09-09T08:58:28;21.70;99.90
39865;DHT22;25538;48.392;9.976;2022-09-09T09:07:09;22.50;99.90
39865;DHT22;25538;48.392;9.976;2022-09-09T09:09:48;22.80;99.90
39865;DHT22;25538;48.392;9.976;2022-09-09T09:12:23;23.60;99.90
39865;DHT22;25538;48.392;9.976;2022-09-09T09:14:50;23.90;99.90
39865;DHT22;25538;48.392;9.976;2022-09-09T09:17:19;23.80;99.90
39865;DHT22;25538;48.392;9.976;2022-09-09T09:19:46;24.00;99.90
39865;DHT22;25538;48.392;9.976;2022-09-09T09:24:55;24.40;99.90
39865;DHT22;25538;48.392;9.976;2022-09-09T09:27:43;24.70;99.90
39865;DHT22;25538;48.392;9.976;2022-09-09T09:30:20;24.50;99.90
39865;DHT22;25538;48.392;9.976;2022-09-09T09:33:02;24.30;99.90
39865;DHT22;25538;48.392;9.976;2022-09-09T09:35:28;24.50;99.90
39865;DHT22;25538;48.392;9.976;2022-09-09T09:37:54;25.30;99.90
39865;DHT22;25538;48.392;9.976;2022-09-09T09:40:22;25.80;99.90
39865;DHT22;25538;48.392;9.976;2022-09-09T09:42:54;25.60;99.90
39865;DHT22;25538;48.392;9.976;2022-09-09T09:45:42;25.60;99.90
39865;DHT22;25538;48.392;9.976;2022-09-09T09:48:12;25.60;99.90
39865;DHT22;25538;48.392;9.976;2022-09-09T09:50:50;25.90;99.90
39865;DHT22;25538;48.392;9.976;2022-09-09T09:53:38;26.00;99.90
39865;DHT22;25538;48.392;9.976;2022-09-09T09:56:07;26.00;99.90
39865;DHT22;25538;48.392;9.976;2022-09-09T09:58:51;26.30;99.90
39865;DHT22;25538;48.392;9.976;2022-09-09T10:01:28;26.80;99.90
39865;DHT22;25538;48.392;9.976;2022-09-09T10:04:18;26.50;99.90
39865;DHT22;25538;48.392;9.976;2022-09-09T10:06:46;27.20;99.10
39865;DHT22;25538;48.392;9.976;2022-09-09T10:12:57;28.00;95.00
39865;DHT22;25538;48.392;9.976;2022-09-09T10:31:39;28.10;89.00
39865;DHT22;25538;48.392;9.976;2022-09-09T10:36:47;29.60;75.30
39865;DHT22;25538;48.392;9.976;2022-09-09T10:41:56;28.50;79.30
39865;DHT22;25538;48.392;9.976;2022-09-09T10:50:45;25.60;86.50
39865;DHT22;25538;48.392;9.976;2022-09-09T10:55:23;25.90;87.10
39865;DHT22;25538;48.392;9.976;2022-09-09T10:57:54;27.30;85.80
39865;DHT22;25538;48.392;9.976;2022-09-09T11:00:40;28.70;78.70
39865;DHT22;25538;48.392;9.976;2022-09-09T11:03:28;30.50;71.50
39865;DHT22;25538;48.392;9.976;2022-09-09T11:06:12;30.00;70.10
39865;DHT22;25538;48.392;9.976;2022-09-09T11:08:39;29.90;69.00
39865;DHT22;25538;48.392;9.976;2022-09-09T11:11:39;30.60;65.20
39865;DHT22;25538;48.392;9.976;2022-09-09T11:14:36;30.80;62.20
39865;DHT22;25538;48.392;9.976;2022-09-09T11:17:14;29.30;66.60
39865;DHT22;25538;48.392;9.976;2022-09-09T11:19:43;30.00;65.30
39865;DHT22;25538;48.392;9.976;2022-09-09T11:22:35;30.40;62.60
39865;DHT22;25538;48.392;9.976;2022-09-09T11:38:51;29.10;60.00
39865;DHT22;25538;48.392;9.976;2022-09-09T11:41:19;28.60;61.50
39865;DHT22;25538;48.392;9.976;2022-09-09T11:43:50;30.00;59.80
39865;DHT22;25538;48.392;9.976;2022-09-09T11:46:20;32.30;58.00
39865;DHT22;25538;48.392;9.976;2022-09-09T11:49:02;32.90;55.20
39865;DHT22;25538;48.392;9.976;2022-09-09T11:51:30;31.30;56.10
39865;DHT22;25538;48.392;9.976;2022-09-09T11:54:01;28.80;61.50
39865;DHT22;25538;48.392;9.976;2022-09-09T11:56:31;26.90;66.30
39865;DHT22;25538;48.392;9.976;2022-09-09T11:59:02;26.70;65.30
39865;DHT22;25538;48.392;9.976;2022-09-09T12:01:42;28.70;59.90
39865;DHT22;25538;48.392;9.976;2022-09-09T12:04:25;30.20;57.70
39865;DHT22;25538;48.392;9.976;2022-09-09T12:12:25;33.50;50.90
39865;DHT22;25538;48.392;9.976;2022-09-09T12:17:42;34.60;49.80
39865;DHT22;25538;48.392;9.976;2022-09-09T12:26:06;35.70;44.00
39865;DHT22;25538;48.392;9.976;2022-09-09T12:39:58;31.60;48.10
39865;DHT22;25538;48.392;9.976;2022-09-09T12:42:26;31.60;49.10
39865;DHT22;25538;48.392;9.976;2022-09-09T12:44:56;32.10;48.50
39865;DHT22;25538;48.392;9.976;2022-09-09T12:50:21;32.40;47.30
39865;DHT22;25538;48.392;9.976;2022-09-09T12:52:50;31.30;48.10
39865;DHT22;25538;48.392;9.976;2022-09-09T12:55:23;29.20;50.00
39865;DHT22;25538;48.392;9.976;2022-09-09T12:57:51;26.90;54.90
39865;DHT22;25538;48.392;9.976;2022-09-09T13:00:20;25.60;58.00
39865;DHT22;25538;48.392;9.976;2022-09-09T13:02:51;25.40;59.60
39865;DHT22;25538;48.392;9.976;2022-09-09T13:05:38;25.10;60.90
39865;DHT22;25538;48.392;9.976;2022-09-09T13:08:06;24.30;61.70
39865;DHT22;25538;48.392;9.976;2022-09-09T13:10:38;23.70;64.40
39865;DHT22;25538;48.392;9.976;2022-09-09T13:13:16;23.50;65.10
39865;DHT22;25538;48.392;9.976;2022-09-09T13:15:52;23.30;64.40
39865;DHT22;25538;48.392;9.976;2022-09-09T13:18:23;23.30;65.20
39865;DHT22;25538;48.392;9.976;2022-09-09T13:20:50;23.50;65.30
39865;DHT22;25538;48.392;9.976;2022-09-09T13:23:18;24.00;65.60
39865;DHT22;25538;48.392;9.976;2022-09-09T13:25:56;24.50;64.10
39865;DHT22;25538;48.392;9.976;2022-09-09T13:28:26;24.90;62.40
39865;DHT22;25538;48.392;9.976;2022-09-09T13:33:33;24.60;63.30
39865;DHT22;25538;48.392;9.976;2022-09-09T13:38:40;25.70;61.30
39865;DHT22;25538;48.392;9.976;2022-09-09T13:41:22;27.80;57.70
39865;DHT22;25538;48.392;9.976;2022-09-09T13:43:50;29.00;53.90
39865;DHT22;25538;48.392;9.976;2022-09-09T13:46:35;29.90;52.70
39865;DHT22;25538;48.392;9.976;2022-09-09T13:51:50;30.60;49.50
39865;DHT22;25538;48.392;9.976;2022-09-09T13:54:19;31.20;47.60
39865;DHT22;25538;48.392;9.976;2022-09-09T13:56:46;31.50;47.00
39865;DHT22;25538;48.392;9.976;2022-09-09T13:59:17;31.80;46.00
39865;DHT22;25538;48.392;9.976;2022-09-09T14:01:47;31.60;45.80
39865;DHT22;25538;48.392;9.976;2022-09-09T14:04:15;31.70;46.90
39865;DHT22;25538;48.392;9.976;2022-09-09T14:06:41;32.80;45.70
39865;DHT22;25538;48.392;9.976;2022-09-09T14:09:14;32.70;44.40
39865;DHT22;25538;48.392;9.976;2022-09-09T14:11:40;32.30;44.80
39865;DHT22;25538;48.392;9.976;2022-09-09T14:14:07;31.30;46.00
39865;DHT22;25538;48.392;9.976;2022-09-09T14:16:33;30.30;47.30
39865;DHT22;25538;48.392;9.976;2022-09-09T14:18:59;30.50;47.80
39865;DHT22;25538;48.392;9.976;2022-09-09T14:21:25;31.20;47.60
39865;DHT22;25538;48.392;9.976;2022-09-09T14:23:52;31.50;46.80
39865;DHT22;25538;48.392;9.976;2022-09-09T14:26:21;30.20;48.70
39865;DHT22;25538;48.392;9.976;2022-09-09T14:28:48;30.00;50.10
39865;DHT22;25538;48.392;9.976;2022-09-09T14:31:14;30.00;49.30
39865;DHT22;25538;48.392;9.976;2022-09-09T14:33:40;28.80;51.30
39865;DHT22;25538;48.392;9.976;2022-09-09T14:36:06;27.80;52.70
39865;DHT22;25538;48.392;9.976;2022-09-09T14:38:34;26.60;56.10
39865;DHT22;25538;48.392;9.976;2022-09-09T14:41:15;26.00;56.80
39865;DHT22;25538;48.392;9.976;2022-09-09T14:43:45;25.60;58.90
39865;DHT22;25538;48.392;9.976;2022-09-09T14:46:16;25.40;58.00
39865;DHT22;25538;48.392;9.976;2022-09-09T14:48:42;26.60;55.80
39865;DHT22;25538;48.392;9.976;2022-09-09T14:51:12;28.80;53.30
39865;DHT22;25538;48.392;9.976;2022-09-09T14:53:41;30.80;50.10
39865;DHT22;25538;48.392;9.976;2022-09-09T14:56:10;32.60;47.20
39865;DHT22;25538;48.392;9.976;2022-09-09T14:58:37;32.90;45.90
39865;DHT22;25538;48.392;9.976;2022-09-09T15:01:08;31.70;47.00
39865;DHT22;25538;48.392;9.976;2022-09-09T15:03:41;29.90;48.60
39865;DHT22;25538;48.392;9.976;2022-09-09T15:06:11;29.30;49.60
39865;DHT22;25538;48.392;9.976;2022-09-09T15:08:39;29.80;50.10
39865;DHT22;25538;48.392;9.976;2022-09-09T15:11:06;30.00;49.10
39865;DHT22;25538;48.392;9.976;2022-09-09T15:13:36;28.60;51.10
39865;DHT22;25538;48.392;9.976;2022-09-09T15:16:07;28.90;50.70
39865;DHT22;25538;48.392;9.976;2022-09-09T15:18:33;29.90;47.60
39865;DHT22;25538;48.392;9.976;2022-09-09T15:21:02;30.70;46.30
39865;DHT22;25538;48.392;9.976;2022-09-09T15:23:34;31.90;46.40
39865;DHT22;25538;48.392;9.976;2022-09-09T15:26:01;32.60;46.30
39865;DHT22;25538;48.392;9.976;2022-09-09T15:28:27;33.90;44.20
39865;DHT22;25538;48.392;9.976;2022-09-09T15:30:54;34.30;43.10
39865;DHT22;25538;48.392;9.976;2022-09-09T15:33:21;34.40;43.60
39865;DHT22;25538;48.392;9.976;2022-09-09T15:35:47;34.50;43.20
39865;DHT22;25538;48.392;9.976;2022-09-09T15:38:14;33.80;42.70
39865;DHT22;25538;48.392;9.976;2022-09-09T15:40:42;33.40;43.50
39865;DHT22;25538;48.392;9.976;2022-09-09T15:43:09;33.10;43.80
39865;DHT22;25538;48.392;9.976;2022-09-09T15:45:37;32.60;44.00
39865;DHT22;25538;48.392;9.976;2022-09-09T15:48:03;31.80;44.50
39865;DHT22;25538;48.392;9.976;2022-09-09T15:50:29;31.20;45.10
39865;DHT22;25538;48.392;9.976;2022-09-09T15:52:59;31.30;45.60
39865;DHT22;25538;48.392;9.976;2022-09-09T15:55:25;31.30;45.40
39865;DHT22;25538;48.392;9.976;2022-09-09T15:57:51;30.70;46.20
39865;DHT22;25538;48.392;9.976;2022-09-09T16:00:20;30.20;46.60
39865;DHT22;25538;48.392;9.976;2022-09-09T16:02:48;29.40;46.80
39865;DHT22;25538;48.392;9.976;2022-09-09T16:05:14;28.70;47.40
39865;DHT22;25538;48.392;9.976;2022-09-09T16:07:40;28.00;49.50
39865;DHT22;25538;48.392;9.976;2022-09-09T16:10:09;27.60;50.10
39865;DHT22;25538;48.392;9.976;2022-09-09T16:12:35;26.90;51.70
39865;DHT22;25538;48.392;9.976;2022-09-09T16:15:00;26.60;52.50
39865;DHT22;25538;48.392;9.976;2022-09-09T16:17:26;26.40;53.00
39865;DHT22;25538;48.392;9.976;2022-09-09T16:19:53;26.00;53.80
39865;DHT22;25538;48.392;9.976;2022-09-09T16:22:20;25.40;54.30
39865;DHT22;25538;48.392;9.976;2022-09-09T16:24:46;24.70;55.70
39865;DHT22;25538;48.392;9.976;2022-09-09T16:27:11;24.50;56.90
39865;DHT22;25538;48.392;9.976;2022-09-09T16:29:37;24.20;56.40
39865;DHT22;25538;48.392;9.976;2022-09-09T16:32:03;23.90;56.90
39865;DHT22;25538;48.392;9.976;2022-09-09T16:34:29;23.90;57.10
39865;DHT22;25538;48.392;9.976;2022-09-09T16:36:55;23.90;56.90
39865;DHT22;25538;48.392;9.976;2022-09-09T16:39:21;23.80;57.30
39865;DHT22;25538;48.392;9.976;2022-09-09T16:41:48;23.40;58.10
39865;DHT22;25538;48.392;9.976;2022-09-09T16:44:16;23.30;57.90
39865;DHT22;25538;48.392;9.976;2022-09-09T16:46:45;23.00;58.30
39865;DHT22;25538;48.392;9.976;2022-09-09T16:49:13;22.90;58.80
39865;DHT22;25538;48.392;9.976;2022-09-09T16:51:46;22.50;59.40
39865;DHT22;25538;48.392;9.976;2022-09-09T16:54:13;22.30;60.20
39865;DHT22;25538;48.392;9.976;2022-09-09T16:56:42;22.40;60.30
39865;DHT22;25538;48.392;9.976;2022-09-09T16:59:17;22.30;60.20
39865;DHT22;25538;48.392;9.976;2022-09-09T17:01:45;22.20;60.00
39865;DHT22;25538;48.392;9.976;2022-09-09T17:04:14;22.30;60.80
39865;DHT22;25538;48.392;9.976;2022-09-09T17:06:41;22.20;61.10
39865;DHT22;25538;48.392;9.976;2022-09-09T17:09:09;22.10;61.30
39865;DHT22;25538;48.392;9.976;2022-09-09T17:11:37;22.00;62.00
39865;DHT22;25538;48.392;9.976;2022-09-09T17:14:05;21.90;62.20
39865;DHT22;25538;48.392;9.976;2022-09-09T17:16:33;21.80;64.80
39865;DHT22;25538;48.392;9.976;2022-09-09T17:19:16;21.10;68.00
39865;DHT22;25538;48.392;9.976;2022-09-09T17:21:47;20.50;70.80
39865;DHT22;25538;48.392;9.976;2022-09-09T17:24:13;20.10;72.80
39865;DHT22;25538;48.392;9.976;2022-09-09T17:26:40;19.80;74.80
39865;DHT22;25538;48.392;9.976;2022-09-09T17:29:06;19.60;76.30
39865;DHT22;25538;48.392;9.976;2022-09-09T17:31:32;19.60;77.60
39865;DHT22;25538;48.392;9.976;2022-09-09T17:34:00;19.60;77.40
39865;DHT22;25538;48.392;9.976;2022-09-09T17:36:32;19.50;78.10
39865;DHT22;25538;48.392;9.976;2022-09-09T17:38:59;19.40;77.20
39865;DHT22;25538;48.392;9.976;2022-09-09T17:41:34;19.40;77.20
39865;DHT22;25538;48.392;9.976;2022-09-09T17:44:00;19.40;76.30
39865;DHT22;25538;48.392;9.976;2022-09-09T17:46:35;19.30;76.60
39865;DHT22;25538;48.392;9.976;2022-09-09T17:49:05;19.30;76.00
39865;DHT22;25538;48.392;9.976;2022-09-09T17:51:32;19.20;75.20
39865;DHT22;25538;48.392;9.976;2022-09-09T17:54:01;19.10;73.40
39865;DHT22;25538;48.392;9.976;2022-09-09T17:56:30;19.00;72.40
39865;DHT22;25538;48.392;9.976;2022-09-09T17:58:58;19.00;72.00
39865;DHT22;25538;48.392;9.976;2022-09-09T18:01:26;19.00;72.20